sensor_id;sensor_type;location;lat;lon;timestamp;P1;durP1;ratioP1;P2;durP2;ratioP2
4812;SDS011;2420;51.202;8.698;2022-07-29T00:01:42;3.30;;;1.80;;
4812;SDS011;2420;51.202;8.698;2022-07-29T00:04:08;3.40;;;1.80;;
4812;SDS011;2420;51.202;8.698;2022-07-29T00:06:34;3.08;;;1.90;;
4812;SDS011;2420;51.202;8.698;2022-07-29T00:08:59;2.60;;;1.70;;
4812;SDS011;2420;51.202;8.698;2022-07-29T00:11:25;4.68;;;1.92;;
4812;SDS011;2420;51.202;8.698;2022-07-29T00:13:50;2.00;;;1.75;;
4812;SDS011;2420;51.202;8.698;2022-07-29T00:16:16;2.95;;;1.83;;
4812;SDS011;2420;51.202;8.698;2022-07-29T00:18:41;2.45;;;1.90;;
4812;SDS011;2420;51.202;8.698;2022-07-29T00:21:07;2.78;;;1.77;;
4812;SDS011;2420;51.202;8.698;2022-07-29T00:23:32;3.53;;;2.10;;
4812;SDS011;2420;51.202;8.698;2022-07-29T00:25:58;2.38;;;1.83;;
4812;SDS011;2420;51.202;8.698;2022-07-29T00:28:24;3.88;;;2.03;;
4812;SDS011;2420;51.202;8.698;2022-07-29T00:30:49;3.58;;;1.88;;
4812;SDS011;2420;51.202;8.698;2022-07-29T00:33:15;4.18;;;2.00;;
4812;SDS011;2420;51.202;8.698;2022-07-29T00:35:40;2.88;;;1.80;;
4812;SDS011;2420;51.202;8.698;2022-07-29T00:38:09;4.28;;;2.30;;
4812;SDS011;2420;51.202;8.698;2022-07-29T00:40:35;3.28;;;2.00;;
4812;SDS011;2420;51.202;8.698;2022-07-29T00:43:01;2.70;;;1.90;;
4812;SDS011;2420;51.202;8.698;2022-07-29T00:45:26;6.97;;;2.30;;
4812;SDS011;2420;51.202;8.698;2022-07-29T00:47:52;3.08;;;1.85;;
4812;SDS011;2420;51.202;8.698;2022-07-29T00:50:18;2.80;;;1.90;;
4812;SDS011;2420;51.202;8.698;2022-07-29T00:52:44;5.43;;;2.10;;
4812;SDS011;2420;51.202;8.698;2022-07-29T00:55:13;2.15;;;1.83;;
4812;SDS011;2420;51.202;8.698;2022-07-29T00:57:40;3.63;;;2.20;;
4812;SDS011;2420;51.202;8.698;2022-07-29T01:00:08;5.43;;;2.15;;
4812;SDS011;2420;51.202;8.698;2022-07-29T01:02:36;4.90;;;2.08;;
4812;SDS011;2420;51.202;8.698;2022-07-29T01:05:02;2.25;;;1.80;;
4812;SDS011;2420;51.202;8.698;2022-07-29T01:07:33;4.75;;;2.10;;
4812;SDS011;2420;51.202;8.698;2022-07-29T01:10:00;2.25;;;2.00;;
4812;SDS011;2420;51.202;8.698;2022-07-29T01:12:28;3.08;;;1.88;;
4812;SDS011;2420;51.202;8.698;2022-07-29T01:14:58;3.95;;;2.03;;
4812;SDS011;2420;51.202;8.698;2022-07-29T01:17:26;6.18;;;2.28;;
4812;SDS011;2420;51.202;8.698;2022-07-29T01:30:44;3.70;;;2.00;;
4812;SDS011;2420;51.202;8.698;2022-07-29T01:33:15;6.90;;;2.17;;
4812;SDS011;2420;51.202;8.698;2022-07-29T01:36:03;5.47;;;2.33;;
4812;SDS011;2420;51.202;8.698;2022-07-29T01:38:34;2.40;;;1.90;;
4812;SDS011;2420;51.202;8.698;2022-07-29T01:41:03;2.67;;;1.88;;
4812;SDS011;2420;51.202;8.698;2022-07-29T01:46:41;3.00;;;2.00;;
4812;SDS011;2420;51.202;8.698;2022-07-29T01:49:15;3.25;;;1.92;;
4812;SDS011;2420;51.202;8.698;2022-07-29T01:51:45;3.17;;;2.53;;
4812;SDS011;2420;51.202;8.698;2022-07-29T01:54:16;2.67;;;2.03;;
4812;SDS011;2420;51.202;8.698;2022-07-29T01:56:51;4.10;;;2.35;;
4812;SDS011;2420;51.202;8.698;2022-07-29T01:59:18;5.85;;;2.03;;
4812;SDS011;2420;51.202;8.698;2022-07-29T02:01:45;3.28;;;2.25;;
4812;SDS011;2420;51.202;8.698;2022-07-29T02:04:13;5.05;;;2.10;;
4812;SDS011;2420;51.202;8.698;2022-07-29T02:06:41;4.70;;;1.88;;
4812;SDS011;2420;51.202;8.698;2022-07-29T02:09:09;4.05;;;2.33;;
4812;SDS011;2420;51.202;8.698;2022-07-29T02:11:37;4.70;;;1.83;;
4812;SDS011;2420;51.202;8.698;2022-07-29T02:14:05;4.00;;;2.10;;
4812;SDS011;2420;51.202;8.698;2022-07-29T02:16:32;5.10;;;1.80;;
4812;SDS011;2420;51.202;8.698;2022-07-29T02:19:00;2.35;;;1.70;;
4812;SDS011;2420;51.202;8.698;2022-07-29T02:21:27;2.85;;;1.95;;
4812;SDS011;2420;51.202;8.698;2022-07-29T02:23:55;2.80;;;2.05;;
4812;SDS011;2420;51.202;8.698;2022-07-29T02:26:24;4.85;;;2.28;;
4812;SDS011;2420;51.202;8.698;2022-07-29T02:28:52;2.22;;;1.80;;
4812;SDS011;2420;51.202;8.698;2022-07-29T02:31:21;3.22;;;2.00;;
4812;SDS011;2420;51.202;8.698;2022-07-29T02:33:50;3.85;;;2.30;;
4812;SDS011;2420;51.202;8.698;2022-07-29T02:36:17;5.22;;;2.00;;
4812;SDS011;2420;51.202;8.698;2022-07-29T02:38:47;4.35;;;1.88;;
4812;SDS011;2420;51.202;8.698;2022-07-29T02:41:17;3.60;;;2.05;;
4812;SDS011;2420;51.202;8.698;2022-07-29T02:43:47;2.28;;;1.83;;
4812;SDS011;2420;51.202;8.698;2022-07-29T02:46:19;3.17;;;2.00;;
4812;SDS011;2420;51.202;8.698;2022-07-29T02:48:51;4.13;;;1.85;;
4812;SDS011;2420;51.202;8.698;2022-07-29T02:51:23;3.13;;;1.88;;
4812;SDS011;2420;51.202;8.698;2022-07-29T02:53:54;3.40;;;2.00;;
4812;SDS011;2420;51.202;8.698;2022-07-29T02:56:25;2.75;;;1.85;;
4812;SDS011;2420;51.202;8.698;2022-07-29T02:58:54;3.35;;;1.98;;
4812;SDS011;2420;51.202;8.698;2022-07-29T03:01:22;3.80;;;2.00;;
4812;SDS011;2420;51.202;8.698;2022-07-29T03:03:51;2.88;;;2.03;;
4812;SDS011;2420;51.202;8.698;2022-07-29T03:06:19;2.78;;;1.98;;
4812;SDS011;2420;51.202;8.698;2022-07-29T03:08:47;3.63;;;2.10;;
4812;SDS011;2420;51.202;8.698;2022-07-29T03:11:14;2.38;;;2.13;;
4812;SDS011;2420;51.202;8.698;2022-07-29T03:13:41;4.38;;;2.00;;
4812;SDS011;2420;51.202;8.698;2022-07-29T03:16:07;3.47;;;2.00;;
4812;SDS011;2420;51.202;8.698;2022-07-29T03:18:34;2.58;;;1.85;;
4812;SDS011;2420;51.202;8.698;2022-07-29T03:21:01;4.40;;;2.05;;
4812;SDS011;2420;51.202;8.698;2022-07-29T03:23:28;5.30;;;2.20;;
4812;SDS011;2420;51.202;8.698;2022-07-29T03:25:54;3.97;;;2.58;;
4812;SDS011;2420;51.202;8.698;2022-07-29T03:28:20;5.88;;;1.70;;
4812;SDS011;2420;51.202;8.698;2022-07-29T03:30:46;4.63;;;1.80;;
4812;SDS011;2420;51.202;8.698;2022-07-29T03:33:12;3.30;;;1.80;;
4812;SDS011;2420;51.202;8.698;2022-07-29T03:35:38;6.05;;;2.20;;
4812;SDS011;2420;51.202;8.698;2022-07-29T03:38:03;2.50;;;1.92;;
4812;SDS011;2420;51.202;8.698;2022-07-29T03:42:57;2.75;;;1.63;;
4812;SDS011;2420;51.202;8.698;2022-07-29T03:45:25;3.15;;;1.80;;
4812;SDS011;2420;51.202;8.698;2022-07-29T03:47:54;3.22;;;2.10;;
4812;SDS011;2420;51.202;8.698;2022-07-29T03:50:24;4.07;;;1.95;;
4812;SDS011;2420;51.202;8.698;2022-07-29T03:52:50;5.13;;;1.92;;
4812;SDS011;2420;51.202;8.698;2022-07-29T03:55:16;2.33;;;1.80;;
4812;SDS011;2420;51.202;8.698;2022-07-29T03:57:43;2.88;;;1.98;;
4812;SDS011;2420;51.202;8.698;2022-07-29T04:00:10;3.17;;;1.98;;
4812;SDS011;2420;51.202;8.698;2022-07-29T04:02:37;3.08;;;2.00;;
4812;SDS011;2420;51.202;8.698;2022-07-29T04:05:04;9.60;;;2.40;;
4812;SDS011;2420;51.202;8.698;2022-07-29T04:07:29;4.10;;;2.03;;
4812;SDS011;2420;51.202;8.698;2022-07-29T04:09:55;2.40;;;1.85;;
4812;SDS011;2420;51.202;8.698;2022-07-29T04:12:20;3.97;;;1.90;;
4812;SDS011;2420;51.202;8.698;2022-07-29T04:14:46;4.18;;;2.10;;
4812;SDS011;2420;51.202;8.698;2022-07-29T04:17:12;3.17;;;1.90;;
4812;SDS011;2420;51.202;8.698;2022-07-29T04:19:37;6.95;;;2.20;;
4812;SDS011;2420;51.202;8.698;2022-07-29T04:22:03;4.72;;;2.00;;
4812;SDS011;2420;51.202;8.698;2022-07-29T04:24:29;4.25;;;1.92;;
4812;SDS011;2420;51.202;8.698;2022-07-29T04:26:54;3.80;;;2.42;;
4812;SDS011;2420;51.202;8.698;2022-07-29T04:29:20;3.60;;;2.22;;
4812;SDS011;2420;51.202;8.698;2022-07-29T04:31:45;2.88;;;2.13;;
4812;SDS011;2420;51.202;8.698;2022-07-29T04:34:11;2.13;;;1.92;;
4812;SDS011;2420;51.202;8.698;2022-07-29T04:36:37;2.90;;;1.85;;
4812;SDS011;2420;51.202;8.698;2022-07-29T04:39:03;2.45;;;2.08;;
4812;SDS011;2420;51.202;8.698;2022-07-29T04:41:29;4.22;;;2.17;;
4812;SDS011;2420;51.202;8.698;2022-07-29T04:43:54;2.22;;;2.00;;
4812;SDS011;2420;51.202;8.698;2022-07-29T04:46:20;4.85;;;2.10;;
4812;SDS011;2420;51.202;8.698;2022-07-29T04:48:46;3.63;;;2.08;;
4812;SDS011;2420;51.202;8.698;2022-07-29T04:51:12;3.20;;;1.98;;
4812;SDS011;2420;51.202;8.698;2022-07-29T04:53:38;3.03;;;1.92;;
4812;SDS011;2420;51.202;8.698;2022-07-29T04:56:04;2.22;;;2.00;;
4812;SDS011;2420;51.202;8.698;2022-07-29T04:58:29;2.65;;;2.10;;
4812;SDS011;2420;51.202;8.698;2022-07-29T05:00:55;2.90;;;2.00;;
4812;SDS011;2420;51.202;8.698;2022-07-29T05:03:20;4.55;;;2.20;;
4812;SDS011;2420;51.202;8.698;2022-07-29T05:05:46;4.15;;;2.25;;
4812;SDS011;2420;51.202;8.698;2022-07-29T05:08:11;5.47;;;2.47;;
4812;SDS011;2420;51.202;8.698;2022-07-29T05:10:37;4.20;;;2.05;;
4812;SDS011;2420;51.202;8.698;2022-07-29T05:13:06;2.47;;;1.90;;
4812;SDS011;2420;51.202;8.698;2022-07-29T05:15:35;2.25;;;1.98;;
4812;SDS011;2420;51.202;8.698;2022-07-29T05:18:01;3.03;;;2.08;;
4812;SDS011;2420;51.202;8.698;2022-07-29T05:20:27;4.20;;;2.55;;
4812;SDS011;2420;51.202;8.698;2022-07-29T05:22:56;4.85;;;2.60;;
4812;SDS011;2420;51.202;8.698;2022-07-29T05:25:23;5.00;;;2.45;;
4812;SDS011;2420;51.202;8.698;2022-07-29T05:27:50;3.03;;;2.30;;
4812;SDS011;2420;51.202;8.698;2022-07-29T05:30:16;4.68;;;2.38;;
4812;SDS011;2420;51.202;8.698;2022-07-29T05:32:42;4.82;;;2.42;;
4812;SDS011;2420;51.202;8.698;2022-07-29T05:35:08;5.38;;;2.30;;
4812;SDS011;2420;51.202;8.698;2022-07-29T05:37:34;3.83;;;2.53;;
4812;SDS011;2420;51.202;8.698;2022-07-29T05:39:59;4.45;;;2.10;;
4812;SDS011;2420;51.202;8.698;2022-07-29T05:42:25;6.32;;;2.20;;
4812;SDS011;2420;51.202;8.698;2022-07-29T05:44:51;3.35;;;2.10;;
4812;SDS011;2420;51.202;8.698;2022-07-29T05:47:16;4.65;;;2.28;;
4812;SDS011;2420;51.202;8.698;2022-07-29T05:49:42;3.20;;;2.00;;
4812;SDS011;2420;51.202;8.698;2022-07-29T05:52:08;3.63;;;2.00;;
4812;SDS011;2420;51.202;8.698;2022-07-29T05:54:34;3.72;;;2.03;;
4812;SDS011;2420;51.202;8.698;2022-07-29T05:57:00;2.83;;;1.90;;
4812;SDS011;2420;51.202;8.698;2022-07-29T05:59:25;4.22;;;2.30;;
4812;SDS011;2420;51.202;8.698;2022-07-29T06:01:51;6.18;;;2.22;;
4812;SDS011;2420;51.202;8.698;2022-07-29T06:04:17;4.53;;;2.20;;
4812;SDS011;2420;51.202;8.698;2022-07-29T06:06:42;3.40;;;1.85;;
4812;SDS011;2420;51.202;8.698;2022-07-29T06:09:08;5.43;;;1.70;;
4812;SDS011;2420;51.202;8.698;2022-07-29T06:11:33;4.22;;;2.00;;
4812;SDS011;2420;51.202;8.698;2022-07-29T06:13:59;3.13;;;1.85;;
4812;SDS011;2420;51.202;8.698;2022-07-29T06:16:24;2.25;;;1.80;;
4812;SDS011;2420;51.202;8.698;2022-07-29T06:18:50;3.15;;;2.05;;
4812;SDS011;2420;51.202;8.698;2022-07-29T06:21:15;3.28;;;1.88;;
4812;SDS011;2420;51.202;8.698;2022-07-29T06:23:41;3.08;;;2.00;;
4812;SDS011;2420;51.202;8.698;2022-07-29T06:26:07;3.83;;;2.15;;
4812;SDS011;2420;51.202;8.698;2022-07-29T06:28:33;4.32;;;2.00;;
4812;SDS011;2420;51.202;8.698;2022-07-29T06:30:59;7.60;;;2.17;;
4812;SDS011;2420;51.202;8.698;2022-07-29T06:33:24;5.78;;;2.05;;
4812;SDS011;2420;51.202;8.698;2022-07-29T06:35:50;3.97;;;1.83;;
4812;SDS011;2420;51.202;8.698;2022-07-29T06:38:15;4.13;;;1.98;;
4812;SDS011;2420;51.202;8.698;2022-07-29T06:40:42;3.45;;;1.70;;
4812;SDS011;2420;51.202;8.698;2022-07-29T06:43:34;5.85;;;1.98;;
4812;SDS011;2420;51.202;8.698;2022-07-29T06:46:03;3.40;;;1.83;;
4812;SDS011;2420;51.202;8.698;2022-07-29T06:48:30;4.28;;;1.95;;
4812;SDS011;2420;51.202;8.698;2022-07-29T06:50:56;3.75;;;1.85;;
4812;SDS011;2420;51.202;8.698;2022-07-29T06:53:22;2.85;;;1.90;;
4812;SDS011;2420;51.202;8.698;2022-07-29T06:55:48;2.53;;;1.70;;
4812;SDS011;2420;51.202;8.698;2022-07-29T06:58:14;2.92;;;1.88;;
4812;SDS011;2420;51.202;8.698;2022-07-29T07:00:42;5.22;;;2.08;;
4812;SDS011;2420;51.202;8.698;2022-07-29T07:03:09;2.83;;;2.00;;
4812;SDS011;2420;51.202;8.698;2022-07-29T07:05:35;3.00;;;2.00;;
4812;SDS011;2420;51.202;8.698;2022-07-29T07:08:00;2.30;;;1.77;;
4812;SDS011;2420;51.202;8.698;2022-07-29T07:10:26;3.25;;;2.10;;
4812;SDS011;2420;51.202;8.698;2022-07-29T07:12:52;3.70;;;1.92;;
4812;SDS011;2420;51.202;8.698;2022-07-29T07:15:17;6.82;;;2.75;;
4812;SDS011;2420;51.202;8.698;2022-07-29T07:17:46;3.75;;;2.03;;
4812;SDS011;2420;51.202;8.698;2022-07-29T07:20:13;2.70;;;1.70;;
4812;SDS011;2420;51.202;8.698;2022-07-29T07:22:39;3.95;;;1.80;;
4812;SDS011;2420;51.202;8.698;2022-07-29T07:25:05;6.38;;;2.25;;
4812;SDS011;2420;51.202;8.698;2022-07-29T07:27:31;3.15;;;1.92;;
4812;SDS011;2420;51.202;8.698;2022-07-29T07:29:56;4.97;;;2.30;;
4812;SDS011;2420;51.202;8.698;2022-07-29T07:32:22;3.53;;;1.85;;
4812;SDS011;2420;51.202;8.698;2022-07-29T07:34:47;4.75;;;2.15;;
4812;SDS011;2420;51.202;8.698;2022-07-29T07:37:13;5.00;;;1.80;;
4812;SDS011;2420;51.202;8.698;2022-07-29T07:39:39;3.85;;;1.80;;
4812;SDS011;2420;51.202;8.698;2022-07-29T07:42:05;5.15;;;2.00;;
4812;SDS011;2420;51.202;8.698;2022-07-29T07:44:31;4.05;;;1.80;;
4812;SDS011;2420;51.202;8.698;2022-07-29T07:46:56;3.55;;;2.10;;
4812;SDS011;2420;51.202;8.698;2022-07-29T07:49:22;4.38;;;1.67;;
4812;SDS011;2420;51.202;8.698;2022-07-29T07:51:48;5.90;;;1.80;;
4812;SDS011;2420;51.202;8.698;2022-07-29T07:54:13;4.18;;;2.42;;
4812;SDS011;2420;51.202;8.698;2022-07-29T07:56:39;3.00;;;1.83;;
4812;SDS011;2420;51.202;8.698;2022-07-29T07:59:04;2.78;;;1.80;;
4812;SDS011;2420;51.202;8.698;2022-07-29T08:01:30;2.97;;;2.10;;
4812;SDS011;2420;51.202;8.698;2022-07-29T08:03:55;3.92;;;1.90;;
4812;SDS011;2420;51.202;8.698;2022-07-29T08:06:21;3.50;;;2.00;;
4812;SDS011;2420;51.202;8.698;2022-07-29T08:08:48;3.65;;;2.00;;
4812;SDS011;2420;51.202;8.698;2022-07-29T08:11:14;4.88;;;1.90;;
4812;SDS011;2420;51.202;8.698;2022-07-29T08:13:39;7.65;;;2.25;;
4812;SDS011;2420;51.202;8.698;2022-07-29T08:16:05;5.90;;;2.10;;
4812;SDS011;2420;51.202;8.698;2022-07-29T08:18:38;2.42;;;1.75;;
4812;SDS011;2420;51.202;8.698;2022-07-29T08:21:07;3.63;;;1.88;;
4812;SDS011;2420;51.202;8.698;2022-07-29T08:23:32;2.97;;;1.88;;
4812;SDS011;2420;51.202;8.698;2022-07-29T08:26:05;2.45;;;2.10;;
4812;SDS011;2420;51.202;8.698;2022-07-29T08:28:35;4.97;;;2.13;;
4812;SDS011;2420;51.202;8.698;2022-07-29T08:31:02;3.42;;;1.98;;
4812;SDS011;2420;51.202;8.698;2022-07-29T08:33:27;3.97;;;2.10;;
4812;SDS011;2420;51.202;8.698;2022-07-29T08:35:53;3.67;;;1.95;;
4812;SDS011;2420;51.202;8.698;2022-07-29T08:38:18;2.78;;;1.73;;
4812;SDS011;2420;51.202;8.698;2022-07-29T08:40:44;2.83;;;2.03;;
4812;SDS011;2420;51.202;8.698;2022-07-29T08:43:10;3.13;;;2.13;;
4812;SDS011;2420;51.202;8.698;2022-07-29T08:45:41;3.67;;;2.20;;
4812;SDS011;2420;51.202;8.698;2022-07-29T08:48:11;3.03;;;2.13;;
4812;SDS011;2420;51.202;8.698;2022-07-29T08:50:37;3.70;;;2.42;;
4812;SDS011;2420;51.202;8.698;2022-07-29T08:53:06;3.13;;;2.28;;
4812;SDS011;2420;51.202;8.698;2022-07-29T08:55:35;3.05;;;2.30;;
4812;SDS011;2420;51.202;8.698;2022-07-29T08:58:03;4.43;;;2.40;;
4812;SDS011;2420;51.202;8.698;2022-07-29T09:00:30;4.22;;;2.63;;
4812;SDS011;2420;51.202;8.698;2022-07-29T09:02:56;4.60;;;2.30;;
4812;SDS011;2420;51.202;8.698;2022-07-29T09:05:23;2.95;;;2.42;;
4812;SDS011;2420;51.202;8.698;2022-07-29T09:07:50;2.28;;;2.08;;
4812;SDS011;2420;51.202;8.698;2022-07-29T09:10:16;3.15;;;2.58;;
4812;SDS011;2420;51.202;8.698;2022-07-29T09:12:42;4.97;;;2.40;;
4812;SDS011;2420;51.202;8.698;2022-07-29T09:15:08;4.90;;;2.22;;
4812;SDS011;2420;51.202;8.698;2022-07-29T09:17:43;2.85;;;2.05;;
4812;SDS011;2420;51.202;8.698;2022-07-29T09:20:14;4.38;;;2.50;;
4812;SDS011;2420;51.202;8.698;2022-07-29T09:22:41;2.60;;;2.38;;
4812;SDS011;2420;51.202;8.698;2022-07-29T09:25:07;3.28;;;2.22;;
4812;SDS011;2420;51.202;8.698;2022-07-29T09:27:33;3.58;;;2.40;;
4812;SDS011;2420;51.202;8.698;2022-07-29T09:30:00;4.20;;;2.42;;
4812;SDS011;2420;51.202;8.698;2022-07-29T09:32:29;4.63;;;2.83;;
4812;SDS011;2420;51.202;8.698;2022-07-29T09:35:14;4.50;;;3.00;;
4812;SDS011;2420;51.202;8.698;2022-07-29T09:37:41;3.05;;;2.55;;
4812;SDS011;2420;51.202;8.698;2022-07-29T09:40:14;4.90;;;2.75;;
4812;SDS011;2420;51.202;8.698;2022-07-29T09:42:48;5.50;;;2.78;;
4812;SDS011;2420;51.202;8.698;2022-07-29T09:45:27;4.30;;;2.53;;
4812;SDS011;2420;51.202;8.698;2022-07-29T09:48:00;2.60;;;2.40;;
4812;SDS011;2420;51.202;8.698;2022-07-29T09:50:42;4.57;;;2.58;;
4812;SDS011;2420;51.202;8.698;2022-07-29T09:53:09;4.15;;;3.00;;
4812;SDS011;2420;51.202;8.698;2022-07-29T09:58:20;4.55;;;2.55;;
4812;SDS011;2420;51.202;8.698;2022-07-29T10:00:47;3.50;;;2.83;;
4812;SDS011;2420;51.202;8.698;2022-07-29T10:03:14;4.95;;;3.10;;
4812;SDS011;2420;51.202;8.698;2022-07-29T10:05:41;3.72;;;2.72;;
4812;SDS011;2420;51.202;8.698;2022-07-29T10:08:08;4.93;;;3.10;;
4812;SDS011;2420;51.202;8.698;2022-07-29T10:10:36;4.43;;;2.85;;
4812;SDS011;2420;51.202;8.698;2022-07-29T10:13:11;3.50;;;2.80;;
4812;SDS011;2420;51.202;8.698;2022-07-29T10:15:38;4.65;;;3.00;;
4812;SDS011;2420;51.202;8.698;2022-07-29T10:18:06;4.70;;;3.10;;
4812;SDS011;2420;51.202;8.698;2022-07-29T10:20:33;4.68;;;3.08;;
4812;SDS011;2420;51.202;8.698;2022-07-29T10:22:59;6.30;;;3.15;;
4812;SDS011;2420;51.202;8.698;2022-07-29T10:25:25;5.10;;;3.35;;
4812;SDS011;2420;51.202;8.698;2022-07-29T10:27:51;3.42;;;2.70;;
4812;SDS011;2420;51.202;8.698;2022-07-29T10:30:18;3.53;;;2.60;;
4812;SDS011;2420;51.202;8.698;2022-07-29T10:38:52;4.90;;;3.08;;
4812;SDS011;2420;51.202;8.698;2022-07-29T10:43:53;4.93;;;3.13;;
4812;SDS011;2420;51.202;8.698;2022-07-29T10:46:22;5.22;;;3.00;;
4812;SDS011;2420;51.202;8.698;2022-07-29T11:07:32;3.85;;;3.13;;
4812;SDS011;2420;51.202;8.698;2022-07-29T11:15:08;5.07;;;3.20;;
4812;SDS011;2420;51.202;8.698;2022-07-29T11:18:15;5.75;;;2.90;;
4812;SDS011;2420;51.202;8.698;2022-07-29T11:22:59;5.45;;;3.20;;
4812;SDS011;2420;51.202;8.698;2022-07-29T11:25:25;3.63;;;3.10;;
4812;SDS011;2420;51.202;8.698;2022-07-29T11:27:52;3.47;;;3.10;;
4812;SDS011;2420;51.202;8.698;2022-07-29T11:30:19;3.47;;;2.97;;
4812;SDS011;2420;51.202;8.698;2022-07-29T11:32:45;3.63;;;2.80;;
4812;SDS011;2420;51.202;8.698;2022-07-29T11:35:22;7.93;;;3.13;;
4812;SDS011;2420;51.202;8.698;2022-07-29T11:43:50;3.58;;;3.13;;
4812;SDS011;2420;51.202;8.698;2022-07-29T11:49:13;5.13;;;2.80;;
4812;SDS011;2420;51.202;8.698;2022-07-29T11:51:50;4.47;;;3.08;;
4812;SDS011;2420;51.202;8.698;2022-07-29T11:54:26;3.97;;;2.80;;
4812;SDS011;2420;51.202;8.698;2022-07-29T11:56:57;3.35;;;2.92;;
4812;SDS011;2420;51.202;8.698;2022-07-29T11:59:24;3.67;;;3.17;;
4812;SDS011;2420;51.202;8.698;2022-07-29T12:01:56;3.47;;;3.03;;
4812;SDS011;2420;51.202;8.698;2022-07-29T12:04:23;3.22;;;2.92;;
4812;SDS011;2420;51.202;8.698;2022-07-29T12:06:52;3.65;;;2.85;;
4812;SDS011;2420;51.202;8.698;2022-07-29T12:09:19;4.35;;;2.90;;
4812;SDS011;2420;51.202;8.698;2022-07-29T12:11:46;3.40;;;3.00;;
4812;SDS011;2420;51.202;8.698;2022-07-29T12:16:50;4.43;;;3.38;;
4812;SDS011;2420;51.202;8.698;2022-07-29T12:19:16;4.10;;;3.00;;
4812;SDS011;2420;51.202;8.698;2022-07-29T12:21:45;4.63;;;3.10;;
4812;SDS011;2420;51.202;8.698;2022-07-29T12:24:15;3.63;;;3.10;;
4812;SDS011;2420;51.202;8.698;2022-07-29T12:26:51;3.42;;;3.10;;
4812;SDS011;2420;51.202;8.698;2022-07-29T12:29:21;6.38;;;3.20;;
4812;SDS011;2420;51.202;8.698;2022-07-29T12:31:51;3.15;;;2.83;;
4812;SDS011;2420;51.202;8.698;2022-07-29T12:34:22;6.60;;;3.40;;
4812;SDS011;2420;51.202;8.698;2022-07-29T12:36:49;4.82;;;3.28;;
4812;SDS011;2420;51.202;8.698;2022-07-29T12:39:15;3.67;;;3.00;;
4812;SDS011;2420;51.202;8.698;2022-07-29T12:41:42;3.60;;;2.92;;
4812;SDS011;2420;51.202;8.698;2022-07-29T12:44:08;3.85;;;2.97;;
4812;SDS011;2420;51.202;8.698;2022-07-29T12:46:34;4.50;;;3.35;;
4812;SDS011;2420;51.202;8.698;2022-07-29T12:48:59;5.93;;;3.20;;
4812;SDS011;2420;51.202;8.698;2022-07-29T12:51:35;5.97;;;2.90;;
4812;SDS011;2420;51.202;8.698;2022-07-29T12:54:08;4.25;;;3.30;;
4812;SDS011;2420;51.202;8.698;2022-07-29T12:56:36;4.82;;;3.20;;
4812;SDS011;2420;51.202;8.698;2022-07-29T12:59:18;3.55;;;3.10;;
4812;SDS011;2420;51.202;8.698;2022-07-29T13:01:48;4.35;;;3.00;;
4812;SDS011;2420;51.202;8.698;2022-07-29T13:04:28;5.00;;;3.00;;
4812;SDS011;2420;51.202;8.698;2022-07-29T13:07:02;5.13;;;3.13;;
4812;SDS011;2420;51.202;8.698;2022-07-29T13:12:13;3.05;;;2.78;;
4812;SDS011;2420;51.202;8.698;2022-07-29T13:14:46;8.48;;;3.20;;
4812;SDS011;2420;51.202;8.698;2022-07-29T13:17:14;4.32;;;3.20;;
4812;SDS011;2420;51.202;8.698;2022-07-29T13:19:45;4.32;;;3.00;;
4812;SDS011;2420;51.202;8.698;2022-07-29T13:22:19;3.65;;;3.30;;
4812;SDS011;2420;51.202;8.698;2022-07-29T13:24:53;4.03;;;3.40;;
4812;SDS011;2420;51.202;8.698;2022-07-29T13:27:22;5.03;;;3.13;;
4812;SDS011;2420;51.202;8.698;2022-07-29T13:29:52;4.00;;;3.33;;
4812;SDS011;2420;51.202;8.698;2022-07-29T13:32:18;3.50;;;3.08;;
4812;SDS011;2420;51.202;8.698;2022-07-29T13:34:44;3.25;;;2.95;;
4812;SDS011;2420;51.202;8.698;2022-07-29T13:37:10;3.70;;;3.30;;
4812;SDS011;2420;51.202;8.698;2022-07-29T13:39:36;5.95;;;3.38;;
4812;SDS011;2420;51.202;8.698;2022-07-29T13:42:02;3.40;;;3.10;;
4812;SDS011;2420;51.202;8.698;2022-07-29T13:44:29;6.03;;;3.28;;
4812;SDS011;2420;51.202;8.698;2022-07-29T13:46:54;5.18;;;3.63;;
4812;SDS011;2420;51.202;8.698;2022-07-29T13:49:20;4.20;;;2.95;;
4812;SDS011;2420;51.202;8.698;2022-07-29T13:51:47;5.07;;;3.40;;
4812;SDS011;2420;51.202;8.698;2022-07-29T13:54:14;3.95;;;3.25;;
4812;SDS011;2420;51.202;8.698;2022-07-29T13:56:39;4.60;;;3.35;;
4812;SDS011;2420;51.202;8.698;2022-07-29T13:59:05;3.97;;;3.38;;
4812;SDS011;2420;51.202;8.698;2022-07-29T14:01:30;3.40;;;3.10;;
4812;SDS011;2420;51.202;8.698;2022-07-29T14:03:56;6.07;;;3.30;;
4812;SDS011;2420;51.202;8.698;2022-07-29T14:06:22;4.40;;;3.13;;
4812;SDS011;2420;51.202;8.698;2022-07-29T14:08:47;3.95;;;3.55;;
4812;SDS011;2420;51.202;8.698;2022-07-29T14:11:13;5.75;;;3.35;;
4812;SDS011;2420;51.202;8.698;2022-07-29T14:13:38;3.67;;;3.30;;
4812;SDS011;2420;51.202;8.698;2022-07-29T14:16:04;3.83;;;3.20;;
4812;SDS011;2420;51.202;8.698;2022-07-29T14:18:30;5.32;;;3.50;;
4812;SDS011;2420;51.202;8.698;2022-07-29T14:20:56;3.85;;;3.42;;
4812;SDS011;2420;51.202;8.698;2022-07-29T14:23:22;4.28;;;3.22;;
4812;SDS011;2420;51.202;8.698;2022-07-29T14:25:47;3.90;;;3.33;;
4812;SDS011;2420;51.202;8.698;2022-07-29T14:28:13;3.35;;;3.05;;
4812;SDS011;2420;51.202;8.698;2022-07-29T14:30:38;3.67;;;3.35;;
4812;SDS011;2420;51.202;8.698;2022-07-29T14:33:04;4.35;;;3.30;;
4812;SDS011;2420;51.202;8.698;2022-07-29T14:35:30;4.43;;;3.33;;
4812;SDS011;2420;51.202;8.698;2022-07-29T14:37:56;3.83;;;3.38;;
4812;SDS011;2420;51.202;8.698;2022-07-29T14:40:22;3.42;;;2.92;;
4812;SDS011;2420;51.202;8.698;2022-07-29T14:42:47;5.53;;;3.90;;
4812;SDS011;2420;51.202;8.698;2022-07-29T14:45:14;5.55;;;3.55;;
4812;SDS011;2420;51.202;8.698;2022-07-29T14:47:39;4.60;;;3.30;;
4812;SDS011;2420;51.202;8.698;2022-07-29T14:50:05;5.00;;;3.30;;
4812;SDS011;2420;51.202;8.698;2022-07-29T14:52:32;4.00;;;3.53;;
4812;SDS011;2420;51.202;8.698;2022-07-29T14:54:57;6.93;;;3.50;;
4812;SDS011;2420;51.202;8.698;2022-07-29T14:57:23;5.05;;;3.40;;
4812;SDS011;2420;51.202;8.698;2022-07-29T14:59:48;3.92;;;3.53;;
4812;SDS011;2420;51.202;8.698;2022-07-29T15:02:14;3.90;;;3.50;;
4812;SDS011;2420;51.202;8.698;2022-07-29T15:04:40;4.63;;;3.15;;
4812;SDS011;2420;51.202;8.698;2022-07-29T15:07:05;4.20;;;3.80;;
4812;SDS011;2420;51.202;8.698;2022-07-29T15:09:31;3.55;;;3.17;;
4812;SDS011;2420;51.202;8.698;2022-07-29T15:11:56;3.47;;;3.00;;
4812;SDS011;2420;51.202;8.698;2022-07-29T15:14:22;19.15;;;4.40;;
4812;SDS011;2420;51.202;8.698;2022-07-29T15:16:47;5.10;;;4.32;;
4812;SDS011;2420;51.202;8.698;2022-07-29T15:19:13;4.75;;;3.50;;
4812;SDS011;2420;51.202;8.698;2022-07-29T15:21:38;6.57;;;3.83;;
4812;SDS011;2420;51.202;8.698;2022-07-29T15:24:04;5.28;;;3.53;;
4812;SDS011;2420;51.202;8.698;2022-07-29T15:26:31;4.15;;;3.75;;
4812;SDS011;2420;51.202;8.698;2022-07-29T15:28:57;4.60;;;3.40;;
4812;SDS011;2420;51.202;8.698;2022-07-29T15:31:24;4.30;;;3.28;;
4812;SDS011;2420;51.202;8.698;2022-07-29T15:33:49;4.43;;;3.58;;
4812;SDS011;2420;51.202;8.698;2022-07-29T15:36:15;4.90;;;3.45;;
4812;SDS011;2420;51.202;8.698;2022-07-29T15:38:40;6.10;;;3.60;;
4812;SDS011;2420;51.202;8.698;2022-07-29T15:41:06;5.43;;;3.33;;
4812;SDS011;2420;51.202;8.698;2022-07-29T15:43:32;5.05;;;3.50;;
4812;SDS011;2420;51.202;8.698;2022-07-29T15:46:00;6.00;;;3.70;;
4812;SDS011;2420;51.202;8.698;2022-07-29T15:48:44;3.90;;;3.45;;
4812;SDS011;2420;51.202;8.698;2022-07-29T15:51:10;3.78;;;3.47;;
4812;SDS011;2420;51.202;8.698;2022-07-29T15:53:35;4.63;;;3.35;;
4812;SDS011;2420;51.202;8.698;2022-07-29T15:56:01;4.07;;;3.67;;
4812;SDS011;2420;51.202;8.698;2022-07-29T15:58:26;4.22;;;3.65;;
4812;SDS011;2420;51.202;8.698;2022-07-29T16:00:52;4.93;;;3.72;;
4812;SDS011;2420;51.202;8.698;2022-07-29T16:03:18;5.55;;;3.70;;
4812;SDS011;2420;51.202;8.698;2022-07-29T16:05:44;6.90;;;4.28;;
4812;SDS011;2420;51.202;8.698;2022-07-29T16:08:10;4.95;;;4.00;;
4812;SDS011;2420;51.202;8.698;2022-07-29T16:10:36;5.95;;;4.10;;
4812;SDS011;2420;51.202;8.698;2022-07-29T16:13:01;4.32;;;3.92;;
4812;SDS011;2420;51.202;8.698;2022-07-29T16:15:27;9.00;;;4.65;;
4812;SDS011;2420;51.202;8.698;2022-07-29T16:17:52;5.43;;;4.10;;
4812;SDS011;2420;51.202;8.698;2022-07-29T16:20:18;7.13;;;4.57;;
4812;SDS011;2420;51.202;8.698;2022-07-29T16:22:44;5.13;;;4.63;;
4812;SDS011;2420;51.202;8.698;2022-07-29T16:25:10;5.00;;;4.53;;